Jeromesville, OH (44840)

6:45 AM EDT on July 04, 2015 (GMT -0400)
US Hwy 42 Ashland, OH 44805 | | Change Station
CLOSE
Current Station
Personal Weather Station
Location: Ashland, OH
Elevation: 1165 ft
Nearby Weather Stations

Elev 1165 ft 40.83 °N, 82.38 °W | Updated 3 seconds ago

Partly Cloudy
Partly Cloudy
56.7 °F
Feels Like 56.7 °F
N
0.0
Wind Variable Wind from NE
Gusts 0.0 mph

Today
High -- | Low -- °F
--% Chance of Precip.
Yesterday
High -- | Low -- °F
Precip. -- in
6:02 AM 9:03 PM
Waning Gibbous, 93% visible
Pressure 29.94 in
Visibility 5.0 miles
Clouds Scattered Clouds 200 ft
Dew Point 54 °F
Humidity 90%
Rainfall 0.00 in
Snow Depth Not available.
UV 0 out of 12
Pollen 4.40 out of 12
Air Quality Not available.
Flu Activity Not available.
SPECI KBJJ 041041Z AUTO 35005KT 5SM BR SCT002 14/13 A2994 RMK AO2 T01390128 TSNO

More Conditions Fewer Conditions

Pressure 29.94 in
Visibility 5.0 miles
Clouds Scattered Clouds 200 ft
Dew Point 54 °F
Humidity 90%
Rainfall 0.00 in
Snow Depth Not available.
UV 0 out of 12
Pollen 4.40 out of 12
Air Quality Not available.
Flu Activity Not available.
SPECI KBJJ 041041Z AUTO 35005KT 5SM BR SCT002 14/13 A2994 RMK AO2 T01390128 TSNO

More Conditions Fewer Conditions

10-Day Weather Forecast

×

Almanac

Astronomy

Jul. 04, 2015 Rise Set
Actual Time
Civil Twilight
Nautical Twilight
Astronomical Twilight
Moon
Length of Visible Light
Length of Day
Tomorrow will be .
, % of the Moon is Illuminated

Today's Extremes

State Highs State Lows

Community

WunderPhotos

Upload Photos

1,834,935 photos uploaded!

WunderBlogs® & News

Nearby

Air Quality

  Air Quality AQ Index Pollutant
Not available.

Snow Depth

Station Depth Elevation

Earthquake Activity

City Distance Mag. Time & Date
Minimum magnitude displayed is 2.5.

Coastal Water Temperatures

Place Temperature

Stations

Nearby Weather Stations

Station Location Temp. Windchill Dew Point Humidity Wind Precip. Elev Updated Type